Time;durP1;ratioP1;P1;durP2;ratioP2;P2;SDS_P1;SDS_P2;PMS_P1;PMS_P2;Temp;Humidity;BMP_temperature;BMP_pressure;BME280_temperature;BME280_humidity;BME280_pressure;Samples;Min_cycle;Max_cycle;Signal;HPM_P1;HPM_P2
2021/04/22 00:00:19;;;;;;;1.57;0.70;;;4.50;99.90;;;;;;5007534;28;20208;-82
2021/04/22 00:02:45;;;;;;;2.40;1.30;;;4.50;99.90;;;;;;5006246;28;20218;-81
2021/04/22 00:05:28;;;;;;;1.30;1.03;;;4.60;99.90;;;;;;5007877;28;20218;-82
2021/04/22 00:07:54;;;;;;;1.43;1.20;;;4.60;99.90;;;;;;5006386;28;20187;-83
2021/04/22 00:10:28;;;;;;;5.17;1.90;;;4.70;99.90;;;;;;5008136;28;20203;-84
2021/04/22 00:12:54;;;;;;;1.20;0.80;;;4.80;99.90;;;;;;5006050;28;20195;-84
2021/04/22 00:15:21;;;;;;;3.63;1.30;;;4.80;99.90;;;;;;5005884;28;20699;-81
2021/04/22 00:17:51;;;;;;;1.03;0.80;;;4.80;99.90;;;;;;5006789;28;20180;-85
2021/04/22 00:20:17;;;;;;;1.10;0.70;;;4.90;99.90;;;;;;5006133;28;20306;-82
2021/04/22 00:22:44;;;;;;;1.67;1.13;;;4.90;99.90;;;;;;5006715;28;20247;-82
2021/04/22 00:25:10;;;;;;;1.47;1.00;;;4.90;99.90;;;;;;5006497;28;20202;-82
2021/04/22 00:27:36;;;;;;;3.67;1.90;;;4.90;99.90;;;;;;5006694;28;20274;-82
2021/04/22 00:30:04;;;;;;;5.80;1.70;;;4.90;99.90;;;;;;5007358;28;20354;-84
2021/04/22 00:32:30;;;;;;;3.33;1.33;;;5.00;99.90;;;;;;5006998;28;20204;-81
2021/04/22 00:34:55;;;;;;;4.43;1.10;;;4.90;99.90;;;;;;5008670;28;20245;-83
2021/04/22 00:37:21;;;;;;;4.30;1.03;;;4.80;99.90;;;;;;5009477;28;20203;-80
2021/04/22 00:39:46;;;;;;;2.13;1.23;;;5.00;99.90;;;;;;5010564;28;20186;-81
2021/04/22 00:42:12;;;;;;;7.83;1.53;;;4.90;99.90;;;;;;5009481;28;20214;-82
2021/04/22 00:44:38;;;;;;;2.20;1.23;;;4.90;99.90;;;;;;5009839;28;20187;-84
2021/04/22 00:47:03;;;;;;;1.47;1.37;;;4.90;99.90;;;;;;5009637;28;20199;-83
2021/04/22 00:49:29;;;;;;;2.00;0.93;;;5.00;99.90;;;;;;5010032;28;20183;-82
2021/04/22 00:51:55;;;;;;;5.27;1.30;;;5.00;99.90;;;;;;5009417;28;20258;-83
2021/04/22 00:54:21;;;;;;;1.53;0.90;;;5.00;99.90;;;;;;5009604;28;20242;-83
2021/04/22 00:56:48;;;;;;;2.07;1.40;;;4.90;99.90;;;;;;5026377;28;20660;-82
2021/04/22 00:59:13;;;;;;;4.20;1.17;;;4.90;99.90;;;;;;5010349;28;20203;-82
2021/04/22 01:01:39;;;;;;;1.43;1.03;;;4.90;99.90;;;;;;5026315;28;20281;-83
2021/04/22 01:04:05;;;;;;;3.30;1.40;;;4.90;99.90;;;;;;5026568;28;20195;-84
2021/04/22 01:06:31;;;;;;;1.60;1.27;;;5.00;99.90;;;;;;5011124;28;20180;-83
2021/04/22 01:09:00;;;;;;;3.50;1.80;;;5.10;99.90;;;;;;5026426;28;20274;-84
2021/04/22 01:11:29;;;;;;;0.97;0.77;;;5.20;99.90;;;;;;5009916;28;20208;-80
2021/04/22 01:13:55;;;;;;;2.93;1.17;;;5.30;99.90;;;;;;5010199;28;20281;-82
2021/04/22 01:16:21;;;;;;;1.10;1.00;;;5.20;99.90;;;;;;5009668;28;20649;-80
2021/04/22 01:18:46;;;;;;;4.60;1.57;;;5.10;99.90;;;;;;5011385;28;20203;-82
2021/04/22 01:21:24;;;;;;;1.57;1.47;;;5.10;99.90;;;;;;5010631;28;20258;-81
2021/04/22 01:23:50;;;;;;;3.23;1.50;;;5.10;99.90;;;;;;5009595;28;20199;-85
2021/04/22 01:26:19;;;;;;;2.30;1.27;;;5.10;99.90;;;;;;5010047;28;20188;-84
2021/04/22 01:28:45;;;;;;;2.70;1.00;;;5.20;99.90;;;;;;5009776;28;20671;-84
2021/04/22 01:31:10;;;;;;;2.40;1.50;;;5.20;99.90;;;;;;5010248;28;20215;-82
2021/04/22 01:33:36;;;;;;;1.47;0.90;;;5.20;99.90;;;;;;5009078;28;20219;-82
2021/04/22 01:36:03;;;;;;;3.77;1.70;;;5.20;99.90;;;;;;5010759;28;20187;-83
2021/04/22 01:38:29;;;;;;;2.90;1.10;;;5.20;99.90;;;;;;5010481;28;20190;-82
2021/04/22 01:40:59;;;;;;;1.90;0.87;;;5.10;99.90;;;;;;5010030;28;20262;-82
2021/04/22 01:43:28;;;;;;;5.30;1.70;;;5.10;99.90;;;;;;5011482;28;20544;-83
2021/04/22 01:45:55;;;;;;;3.27;1.20;;;5.20;99.90;;;;;;5008769;28;20255;-81
2021/04/22 01:48:21;;;;;;;2.77;0.90;;;5.10;99.90;;;;;;5026038;28;20187;-85
2021/04/22 01:50:47;;;;;;;2.03;0.83;;;5.00;99.90;;;;;;5009462;28;20215;-82
2021/04/22 01:53:13;;;;;;;5.47;2.10;;;4.90;99.90;;;;;;5010126;28;20203;-82
2021/04/22 01:55:42;;;;;;;0.97;0.80;;;4.90;99.90;;;;;;5008088;28;20188;-80
2021/04/22 01:58:10;;;;;;;4.47;1.40;;;4.90;99.90;;;;;;5008408;28;20180;-80
2021/04/22 02:00:39;;;;;;;3.13;0.83;;;4.80;99.90;;;;;;5007564;28;20223;-80
2021/04/22 02:03:06;;;;;;;2.77;1.10;;;4.90;99.90;;;;;;5007876;28;20273;-80
2021/04/22 02:05:31;;;;;;;2.33;0.97;;;4.90;99.90;;;;;;5022610;28;20179;-80
2021/04/22 02:07:57;;;;;;;1.53;1.43;;;4.90;99.90;;;;;;5006675;28;20199;-80
2021/04/22 02:10:23;;;;;;;1.40;0.70;;;5.00;99.90;;;;;;5008384;28;20212;-80
2021/04/22 02:12:50;;;;;;;2.27;1.03;;;5.00;99.90;;;;;;5006347;28;20772;-79
2021/04/22 02:15:20;;;;;;;3.77;1.60;;;4.90;99.90;;;;;;5007042;28;20188;-80
2021/04/22 02:17:46;;;;;;;1.43;1.00;;;4.90;99.90;;;;;;5006856;28;20180;-81
2021/04/22 02:20:15;;;;;;;3.70;1.20;;;4.90;99.90;;;;;;5006638;28;20215;-79
2021/04/22 02:22:40;;;;;;;0.80;0.80;;;4.90;99.90;;;;;;5006208;28;20295;-80
2021/04/22 02:25:09;;;;;;;2.00;1.30;;;4.90;99.90;;;;;;5006644;28;20815;-80
2021/04/22 02:27:35;;;;;;;2.83;1.70;;;4.90;99.90;;;;;;5006044;28;21115;-80
2021/04/22 02:30:04;;;;;;;1.60;0.87;;;4.70;99.90;;;;;;5006474;28;20274;-80
2021/04/22 02:32:29;;;;;;;5.53;1.43;;;4.70;99.90;;;;;;5021993;28;20646;-81
2021/04/22 02:34:55;;;;;;;7.60;1.73;;;4.50;99.90;;;;;;5021918;28;20233;-79
2021/04/22 02:37:21;;;;;;;3.10;1.40;;;4.40;99.90;;;;;;5005619;28;20187;-79
2021/04/22 02:39:46;;;;;;;1.67;0.80;;;4.30;99.90;;;;;;5006167;28;20270;-82
2021/04/22 02:42:12;;;;;;;4.73;1.13;;;4.30;99.90;;;;;;5005866;28;20578;-80
2021/04/22 02:44:40;;;;;;;5.07;1.73;;;4.20;99.90;;;;;;5005493;28;20210;-80
2021/04/22 02:47:05;;;;;;;2.37;1.47;;;4.20;99.90;;;;;;5022241;28;20194;-81
2021/04/22 02:49:31;;;;;;;2.90;1.57;;;4.20;99.90;;;;;;5006061;28;20557;-81
2021/04/22 02:51:57;;;;;;;0.97;0.90;;;4.10;99.90;;;;;;5006221;28;20216;-80
2021/04/22 02:54:22;;;;;;;1.77;1.30;;;4.10;99.90;;;;;;5005817;28;20261;-82
2021/04/22 02:56:48;;;;;;;1.10;1.00;;;4.00;99.90;;;;;;5007249;28;20188;-80
2021/04/22 02:59:13;;;;;;;1.47;1.30;;;4.00;99.90;;;;;;5006011;28;20183;-80
2021/04/22 03:01:39;;;;;;;1.30;0.90;;;4.00;99.90;;;;;;5005966;28;20618;-80
2021/04/22 03:04:05;;;;;;;3.93;1.53;;;4.10;99.90;;;;;;5007366;28;20188;-80
2021/04/22 03:06:31;;;;;;;2.03;1.17;;;4.20;99.90;;;;;;5005811;28;20183;-80
2021/04/22 03:08:56;;;;;;;3.27;1.27;;;4.30;99.90;;;;;;5005676;28;20250;-80
2021/04/22 03:11:22;;;;;;;3.17;0.90;;;4.30;99.90;;;;;;5007615;28;20265;-79
2021/04/22 03:13:47;;;;;;;3.83;1.47;;;4.30;99.90;;;;;;5005584;28;20203;-81
2021/04/22 03:16:13;;;;;;;1.60;0.73;;;4.20;99.90;;;;;;5005242;28;20290;-80
2021/04/22 03:18:39;;;;;;;1.33;1.00;;;4.00;99.90;;;;;;5005258;28;20192;-80
2021/04/22 03:21:04;;;;;;;9.43;2.37;;;4.00;99.90;;;;;;5005984;28;20882;-80
2021/04/22 03:23:30;;;;;;;1.97;1.07;;;4.00;99.90;;;;;;5006864;28;20587;-80
2021/04/22 03:25:55;;;;;;;1.50;1.40;;;4.00;99.90;;;;;;5006088;28;20184;-81
2021/04/22 03:28:21;;;;;;;3.20;1.23;;;3.90;99.90;;;;;;5006697;28;20241;-79
2021/04/22 03:30:47;;;;;;;1.60;1.40;;;4.00;99.90;;;;;;5005314;28;20245;-80
2021/04/22 03:33:13;;;;;;;3.03;1.17;;;3.90;99.90;;;;;;5005706;28;20199;-80
2021/04/22 03:35:38;;;;;;;2.17;0.80;;;3.90;99.90;;;;;;5003567;28;20190;-80
2021/04/22 03:38:04;;;;;;;1.67;0.80;;;3.90;99.90;;;;;;5004180;28;20179;-83
2021/04/22 03:40:30;;;;;;;1.70;1.20;;;3.90;99.90;;;;;;5005833;28;20199;-80
2021/04/22 03:42:56;;;;;;;3.87;1.53;;;3.90;99.90;;;;;;5006500;28;20623;-82
2021/04/22 03:45:24;;;;;;;2.03;1.10;;;3.90;99.90;;;;;;5004887;28;20176;-81
2021/04/22 03:47:50;;;;;;;4.43;1.13;;;4.00;99.90;;;;;;5021676;28;20658;-80
2021/04/22 03:50:17;;;;;;;2.07;1.07;;;4.10;99.90;;;;;;5007083;28;20290;-80
2021/04/22 03:52:44;;;;;;;2.00;0.90;;;4.30;99.90;;;;;;5006023;28;20218;-81
2021/04/22 03:55:11;;;;;;;3.70;1.30;;;4.50;99.90;;;;;;5005318;28;20204;-82
2021/04/22 03:57:37;;;;;;;2.77;1.57;;;4.50;99.90;;;;;;5004611;28;20669;-82
2021/04/22 04:00:08;;;;;;;1.00;0.90;;;4.60;99.90;;;;;;5004870;28;20222;-79
2021/04/22 04:02:34;;;;;;;2.90;1.33;;;4.70;99.90;;;;;;5004700;28;20547;-80
2021/04/22 04:05:00;;;;;;;7.50;1.97;;;4.80;99.90;;;;;;5005391;28;20194;-80
2021/04/22 04:07:26;;;;;;;2.63;1.70;;;4.80;99.90;;;;;;5004789;28;20187;-82
2021/04/22 04:09:52;;;;;;;3.07;1.70;;;4.90;99.90;;;;;;5007466;28;20187;-82
2021/04/22 04:12:18;;;;;;;1.30;1.17;;;4.90;99.90;;;;;;5010698;28;20179;-81
2021/04/22 04:14:44;;;;;;;4.10;1.40;;;4.90;99.90;;;;;;5025290;28;20624;-82
2021/04/22 04:17:09;;;;;;;5.50;1.37;;;5.00;99.90;;;;;;5009206;28;20184;-81
2021/04/22 04:19:35;;;;;;;1.90;0.97;;;5.00;99.90;;;;;;5022819;28;20210;-81
2021/04/22 04:22:01;;;;;;;0.90;0.77;;;5.10;99.90;;;;;;5007993;28;20207;-81
2021/04/22 04:24:26;;;;;;;1.77;1.03;;;5.10;99.90;;;;;;5009852;28;20199;-81
2021/04/22 04:26:52;;;;;;;2.53;1.20;;;5.10;99.90;;;;;;5008577;28;20195;-81
2021/04/22 04:29:17;;;;;;;1.23;0.90;;;5.10;99.90;;;;;;5008323;28;20546;-81
2021/04/22 04:31:43;;;;;;;5.13;1.97;;;5.20;99.90;;;;;;5009883;28;20207;-81
2021/04/22 04:34:09;;;;;;;1.87;0.80;;;5.30;99.90;;;;;;5009003;28;20298;-81
2021/04/22 04:36:34;;;;;;;1.37;0.87;;;5.20;99.90;;;;;;5008637;28;20597;-81
2021/04/22 04:39:00;;;;;;;2.17;1.43;;;5.20;99.90;;;;;;5009025;28;20183;-81
2021/04/22 04:41:26;;;;;;;1.60;1.00;;;5.30;99.90;;;;;;5009909;28;20208;-80
2021/04/22 04:43:51;;;;;;;2.10;0.87;;;5.20;99.90;;;;;;5008261;28;20283;-81
2021/04/22 04:46:17;;;;;;;4.73;1.77;;;5.30;99.90;;;;;;5008396;28;20551;-82
2021/04/22 04:48:44;;;;;;;0.70;0.63;;;5.30;99.90;;;;;;5009779;28;20225;-81
2021/04/22 04:51:10;;;;;;;2.47;1.10;;;5.50;99.90;;;;;;5009703;28;20286;-81
2021/04/22 04:53:36;;;;;;;1.70;0.93;;;5.50;99.90;;;;;;5009206;28;20294;-81
2021/04/22 04:56:01;;;;;;;2.10;1.50;;;5.60;99.90;;;;;;5010590;28;20176;-81
2021/04/22 04:58:27;;;;;;;6.13;1.87;;;5.60;99.90;;;;;;5010277;28;20751;-82
2021/04/22 05:00:53;;;;;;;2.20;1.13;;;5.80;99.90;;;;;;5009055;28;20210;-82
2021/04/22 05:03:18;;;;;;;1.83;0.70;;;5.80;99.90;;;;;;5008542;28;20217;-81
2021/04/22 05:05:44;;;;;;;3.97;1.23;;;5.90;99.90;;;;;;5024510;28;20255;-82
2021/04/22 05:08:09;;;;;;;0.73;0.60;;;6.10;99.90;;;;;;5008402;28;20187;-81
2021/04/22 05:10:35;;;;;;;0.97;0.80;;;6.00;99.90;;;;;;5009259;28;20242;-82
2021/04/22 05:13:00;;;;;;;6.33;1.60;;;6.50;99.90;;;;;;5007119;28;20211;-80
2021/04/22 05:15:26;;;;;;;4.20;0.90;;;7.10;99.90;;;;;;5008985;28;20188;-82
2021/04/22 05:17:52;;;;;;;4.07;1.23;;;7.30;99.90;;;;;;5007892;28;20180;-82
2021/04/22 05:20:17;;;;;;;3.33;1.37;;;7.40;99.90;;;;;;5006856;28;20310;-81
2021/04/22 05:22:43;;;;;;;2.67;0.77;;;7.70;99.90;;;;;;5008618;28;20631;-84
2021/04/22 05:25:09;;;;;;;1.50;0.63;;;7.80;99.90;;;;;;5024015;28;20283;-83
2021/04/22 05:27:35;;;;;;;1.20;0.90;;;7.50;99.90;;;;;;5007523;28;20274;-84
2021/04/22 05:30:01;;;;;;;1.33;1.07;;;7.30;99.90;;;;;;5008002;28;20298;-82
2021/04/22 05:32:26;;;;;;;2.37;0.90;;;7.20;99.90;;;;;;5009084;28;20756;-84
2021/04/22 05:34:52;;;;;;;3.73;1.17;;;7.00;99.90;;;;;;5008845;28;20295;-84
2021/04/22 05:37:21;;;;;;;2.00;0.97;;;6.90;99.90;;;;;;5007242;28;20719;-83
2021/04/22 05:39:46;;;;;;;1.93;0.93;;;6.70;99.90;;;;;;5007377;28;20180;-82
2021/04/22 05:42:12;;;;;;;1.93;1.33;;;6.60;99.90;;;;;;5007103;28;20210;-82
2021/04/22 05:44:38;;;;;;;8.00;1.20;;;6.60;99.90;;;;;;5007990;28;20629;-82
2021/04/22 05:47:04;;;;;;;0.93;0.57;;;6.60;99.90;;;;;;5003463;28;20319;-81
2021/04/22 05:49:30;;;;;;;0.83;0.70;;;6.60;99.90;;;;;;5006238;28;20246;-82
2021/04/22 05:51:55;;;;;;;2.77;1.47;;;6.60;99.90;;;;;;5008381;28;20207;-80
2021/04/22 05:54:21;;;;;;;1.60;1.33;;;6.90;99.90;;;;;;5005905;28;20628;-80
2021/04/22 05:56:47;;;;;;;2.63;1.50;;;6.90;99.90;;;;;;5006023;28;20187;-82
2021/04/22 05:59:12;;;;;;;2.20;1.43;;;6.80;99.90;;;;;;5005932;28;20723;-80
2021/04/22 06:01:38;;;;;;;1.47;0.93;;;6.80;99.90;;;;;;5006293;28;20199;-85
2021/04/22 06:04:04;;;;;;;1.63;0.97;;;6.60;99.90;;;;;;5006037;28;20215;-81
2021/04/22 06:06:30;;;;;;;2.17;0.90;;;6.50;99.90;;;;;;5006166;28;20188;-83
2021/04/22 06:08:56;;;;;;;3.13;1.43;;;6.50;99.90;;;;;;5006531;28;20179;-79
2021/04/22 06:11:21;;;;;;;3.10;1.00;;;6.60;99.90;;;;;;5001802;28;20203;-83
2021/04/22 06:13:47;;;;;;;2.87;0.97;;;6.80;99.90;;;;;;5006474;28;20203;-84
2021/04/22 06:16:13;;;;;;;1.30;0.80;;;6.90;99.90;;;;;;5006069;28;20188;-81
2021/04/22 06:18:39;;;;;;;1.63;1.20;;;6.90;99.90;;;;;;5007310;28;20195;-81
2021/04/22 06:21:05;;;;;;;1.97;1.47;;;6.90;99.90;;;;;;5008322;28;20203;-81
2021/04/22 06:23:31;;;;;;;2.00;1.03;;;6.90;99.90;;;;;;5005991;28;20241;-81
2021/04/22 06:25:56;;;;;;;3.23;1.17;;;7.00;99.90;;;;;;5006265;28;20199;-81
2021/04/22 06:28:22;;;;;;;1.00;0.60;;;7.20;99.90;;;;;;5006633;28;20200;-79
2021/04/22 06:30:49;;;;;;;1.73;1.13;;;7.30;99.90;;;;;;5008020;28;20257;-78
2021/04/22 06:33:15;;;;;;;2.00;0.80;;;7.30;99.90;;;;;;5006510;28;20253;-80
2021/04/22 06:35:40;;;;;;;1.97;0.70;;;7.30;99.90;;;;;;5005853;28;20571;-79
2021/04/22 06:38:06;;;;;;;2.40;1.03;;;7.30;99.90;;;;;;5009197;28;20184;-80
2021/04/22 06:40:32;;;;;;;2.80;0.57;;;7.40;99.90;;;;;;5006660;28;20215;-82
2021/04/22 06:42:58;;;;;;;1.80;0.90;;;7.50;99.90;;;;;;5007235;28;20179;-77
2021/04/22 06:45:23;;;;;;;1.80;1.00;;;7.60;99.90;;;;;;5010318;28;20207;-77
2021/04/22 06:47:50;;;;;;;1.90;1.13;;;7.50;99.90;;;;;;5010647;28;20207;-80
2021/04/22 06:50:21;;;;;;;2.63;1.57;;;7.60;99.90;;;;;;5023572;28;20199;-80
2021/04/22 06:52:47;;;;;;;0.77;0.70;;;7.70;99.90;;;;;;5006696;28;20276;-83
2021/04/22 06:55:21;;;;;;;5.07;1.77;;;7.80;99.90;;;;;;5005799;28;20576;-81
2021/04/22 06:57:47;;;;;;;1.47;0.87;;;7.90;99.90;;;;;;5005280;28;20262;-81
2021/04/22 07:00:19;;;;;;;1.17;0.70;;;7.90;99.90;;;;;;5006134;28;20310;-82
2021/04/22 07:02:45;;;;;;;1.73;1.23;;;7.80;99.90;;;;;;5007757;28;20641;-79
2021/04/22 07:05:12;;;;;;;1.27;0.83;;;7.70;99.90;;;;;;5005666;28;20188;-81
2021/04/22 07:07:38;;;;;;;1.97;0.93;;;7.80;99.90;;;;;;5006171;28;20195;-76
2021/04/22 07:10:06;;;;;;;2.33;0.90;;;7.80;99.90;;;;;;5007675;28;20225;-80
2021/04/22 07:12:31;;;;;;;1.47;1.23;;;8.00;99.90;;;;;;5006879;28;20187;-80
2021/04/22 07:14:57;;;;;;;1.60;0.90;;;8.20;99.90;;;;;;5005405;28;20561;-78
2021/04/22 07:17:23;;;;;;;3.23;1.40;;;8.30;99.90;;;;;;5006938;28;20211;-80
2021/04/22 07:19:49;;;;;;;3.20;1.60;;;8.30;99.90;;;;;;5006767;28;20191;-80
2021/04/22 07:22:15;;;;;;;3.67;1.97;;;8.30;99.90;;;;;;5006659;28;20194;-80
2021/04/22 07:24:41;;;;;;;1.67;0.97;;;8.60;99.90;;;;;;5005979;28;20184;-81
2021/04/22 07:27:09;;;;;;;3.90;1.10;;;8.80;99.90;;;;;;5006910;28;20187;-81
2021/04/22 07:29:35;;;;;;;0.87;0.53;;;9.10;99.90;;;;;;5006128;28;20187;-85
2021/04/22 07:32:01;;;;;;;3.67;1.13;;;9.00;99.90;;;;;;5005743;28;20561;-79
2021/04/22 07:34:26;;;;;;;3.50;1.33;;;9.40;99.90;;;;;;5000042;28;20215;-79
2021/04/22 07:36:54;;;;;;;1.87;0.90;;;9.40;99.90;;;;;;5006634;28;20179;-79
2021/04/22 07:39:20;;;;;;;3.20;1.10;;;8.90;99.90;;;;;;5007527;28;20661;-80
2021/04/22 07:41:46;;;;;;;4.27;1.23;;;8.80;99.90;;;;;;5022503;28;20204;-79
2021/04/22 07:44:11;;;;;;;1.97;0.87;;;9.00;99.90;;;;;;5006095;28;20720;-81
2021/04/22 07:46:37;;;;;;;1.67;0.80;;;9.00;99.90;;;;;;5021758;28;21051;-80
2021/04/22 07:49:06;;;;;;;2.27;1.67;;;9.00;99.90;;;;;;5006782;28;20529;-80
2021/04/22 07:51:31;;;;;;;1.20;1.00;;;9.30;99.90;;;;;;5006282;28;20214;-82
2021/04/22 07:53:57;;;;;;;0.97;0.77;;;9.50;99.90;;;;;;5005404;28;20219;-82
2021/04/22 07:56:23;;;;;;;1.53;0.60;;;9.60;99.90;;;;;;5007350;28;20245;-82
2021/04/22 07:58:48;;;;;;;0.93;0.60;;;9.70;99.90;;;;;;5007015;28;21225;-81
2021/04/22 08:01:14;;;;;;;2.87;1.23;;;9.80;99.90;;;;;;5004621;28;20763;-80
2021/04/22 08:03:40;;;;;;;1.83;0.90;;;10.00;99.90;;;;;;5007604;28;20191;-78
2021/04/22 08:06:05;;;;;;;2.70;0.60;;;9.60;99.90;;;;;;5006988;28;20286;-78
2021/04/22 08:08:31;;;;;;;2.20;0.90;;;9.60;99.90;;;;;;5006773;28;20203;-78
2021/04/22 08:10:57;;;;;;;4.67;1.73;;;9.50;99.90;;;;;;5006799;28;20218;-76
2021/04/22 08:13:23;;;;;;;2.07;0.80;;;9.50;99.90;;;;;;5005853;28;20208;-80
2021/04/22 08:15:52;;;;;;;1.53;1.00;;;9.50;99.90;;;;;;5007581;28;20246;-78
2021/04/22 08:18:19;;;;;;;3.20;1.20;;;9.20;99.90;;;;;;5023927;28;20198;-76
2021/04/22 08:20:46;;;;;;;4.50;2.30;;;9.10;99.90;;;;;;5004556;28;20226;-79
2021/04/22 08:23:13;;;;;;;2.30;0.93;;;9.10;99.90;;;;;;5009144;28;20187;-79
2021/04/22 08:25:42;;;;;;;3.83;2.20;;;9.10;99.90;;;;;;5007867;28;20211;-77
2021/04/22 08:28:10;;;;;;;2.60;1.37;;;9.00;99.90;;;;;;5009069;28;20188;-80
2021/04/22 08:30:46;;;;;;;1.13;1.03;;;9.30;99.90;;;;;;5008097;28;20192;-82
2021/04/22 08:33:13;;;;;;;1.60;1.13;;;9.20;99.90;;;;;;5008176;28;20175;-84
2021/04/22 08:35:39;;;;;;;1.47;0.97;;;9.30;99.90;;;;;;5006088;28;20184;-81
2021/04/22 08:38:05;;;;;;;1.67;1.00;;;9.60;99.90;;;;;;5008100;28;20314;-84
2021/04/22 08:40:31;;;;;;;2.30;1.10;;;9.70;99.90;;;;;;5008597;28;20286;-83
2021/04/22 08:42:58;;;;;;;2.83;0.90;;;9.60;99.90;;;;;;5006165;28;20680;-82
2021/04/22 08:45:24;;;;;;;0.70;0.67;;;9.50;99.90;;;;;;5006885;28;20790;-82
2021/04/22 08:47:50;;;;;;;1.77;1.10;;;9.60;99.90;;;;;;5007026;28;20192;-83
2021/04/22 08:50:22;;;;;;;0.97;0.77;;;9.50;99.90;;;;;;5007328;28;20214;-85
2021/04/22 08:52:49;;;;;;;2.40;1.10;;;9.50;99.90;;;;;;5007202;28;20203;-84
2021/04/22 08:55:16;;;;;;;1.73;1.07;;;9.90;99.90;;;;;;5008014;28;20222;-82
2021/04/22 08:57:42;;;;;;;2.03;0.90;;;10.00;99.90;;;;;;5009854;28;20187;-84
2021/04/22 09:00:14;;;;;;;2.07;1.20;;;10.00;99.90;;;;;;5010227;28;20273;-81
2021/04/22 09:02:39;;;;;;;3.27;1.40;;;9.60;99.90;;;;;;5025795;28;20647;-83
2021/04/22 09:05:06;;;;;;;2.60;1.83;;;9.70;99.90;;;;;;5008620;28;20184;-81
2021/04/22 09:07:32;;;;;;;3.33;1.80;;;9.80;99.90;;;;;;5008917;28;20661;-82
2021/04/22 09:09:58;;;;;;;1.93;0.87;;;9.90;99.90;;;;;;5024759;28;20199;-84
2021/04/22 09:12:25;;;;;;;1.73;1.23;;;9.90;99.90;;;;;;5009435;28;20179;-81
2021/04/22 09:14:52;;;;;;;1.83;1.13;;;9.80;99.90;;;;;;5007456;28;21072;-82
2021/04/22 09:17:19;;;;;;;2.33;0.73;;;9.80;99.90;;;;;;5008615;28;20184;-82
2021/04/22 09:19:45;;;;;;;3.80;1.40;;;10.00;99.90;;;;;;5007003;28;20199;-81
2021/04/22 09:22:11;;;;;;;1.27;0.70;;;10.20;99.90;;;;;;5007342;28;20226;-82
2021/04/22 09:24:36;;;;;;;1.27;1.00;;;10.50;99.90;;;;;;5006510;28;20659;-81
2021/04/22 09:27:04;;;;;;;0.80;0.70;;;10.40;99.90;;;;;;5007348;28;20230;-82
2021/04/22 09:29:44;;;;;;;2.10;1.30;;;10.40;99.90;;;;;;5007211;28;20261;-83
2021/04/22 09:32:11;;;;;;;2.63;1.33;;;10.60;99.90;;;;;;5006989;28;20568;-81
2021/04/22 09:34:38;;;;;;;3.90;1.13;;;10.60;99.90;;;;;;5005917;28;20269;-79
2021/04/22 09:37:03;;;;;;;4.80;1.43;;;10.80;99.90;;;;;;5005383;28;20171;-83
2021/04/22 09:39:32;;;;;;;1.00;0.80;;;11.20;99.90;;;;;;5007515;28;20190;-83
2021/04/22 09:42:00;;;;;;;0.83;0.70;;;11.30;99.90;;;;;;5005474;28;20199;-82
2021/04/22 09:44:27;;;;;;;1.90;1.07;;;11.20;99.90;;;;;;5006130;28;20215;-77
2021/04/22 09:47:14;;;;;;;2.33;1.03;;;11.30;99.90;;;;;;5008313;28;20202;-79
2021/04/22 09:49:55;;;;;;;1.60;0.80;;;11.50;99.90;;;;;;5009262;28;20171;-76
2021/04/22 09:52:21;;;;;;;1.17;0.73;;;11.60;99.90;;;;;;5007235;28;20230;-78
2021/04/22 09:54:52;;;;;;;2.63;0.80;;;11.40;99.90;;;;;;5005586;28;20240;-77
2021/04/22 09:57:23;;;;;;;1.90;1.30;;;11.20;99.90;;;;;;5008901;28;20774;-79
2021/04/22 09:59:49;;;;;;;2.83;1.30;;;11.30;99.90;;;;;;5005887;28;20182;-77
2021/04/22 10:02:15;;;;;;;1.30;0.80;;;11.00;99.90;;;;;;5007442;28;20655;-76
2021/04/22 10:04:44;;;;;;;2.93;1.10;;;11.30;99.90;;;;;;5006701;28;20272;-77
2021/04/22 10:07:23;;;;;;;1.90;0.73;;;11.70;99.90;;;;;;5005993;28;20179;-78
2021/04/22 10:09:51;;;;;;;2.17;0.87;;;11.90;99.90;;;;;;5009864;28;20188;-79
2021/04/22 10:12:25;;;;;;;1.97;1.03;;;11.70;99.90;;;;;;5009791;28;20673;-80
2021/04/22 10:14:52;;;;;;;2.40;0.90;;;11.40;99.90;;;;;;5008830;28;20527;-78
2021/04/22 10:17:23;;;;;;;0.93;0.90;;;11.10;99.90;;;;;;5008609;28;20233;-78
2021/04/22 10:20:06;;;;;;;1.70;0.90;;;11.10;99.90;;;;;;5027143;28;20210;-78
2021/04/22 10:22:35;;;;;;;1.40;0.80;;;11.50;99.90;;;;;;5011437;28;20180;-78
2021/04/22 10:25:05;;;;;;;0.90;0.90;;;11.60;99.90;;;;;;5010468;28;20176;-79
2021/04/22 10:27:31;;;;;;;3.43;1.20;;;11.80;99.90;;;;;;5015271;28;21013;-80
2021/04/22 10:29:58;;;;;;;2.50;1.00;;;12.30;99.90;;;;;;5010045;28;20199;-77
2021/04/22 10:32:24;;;;;;;1.33;0.87;;;12.30;99.90;;;;;;5008207;28;20183;-79
2021/04/22 10:34:51;;;;;;;5.33;1.70;;;12.10;99.90;;;;;;5008216;28;21208;-80
2021/04/22 10:37:23;;;;;;;1.87;1.00;;;12.10;99.90;;;;;;5009138;28;20171;-77
2021/04/22 10:39:50;;;;;;;2.57;1.40;;;11.90;99.90;;;;;;5007888;28;20194;-77
2021/04/22 10:42:18;;;;;;;1.47;1.00;;;11.80;99.90;;;;;;5023757;28;20180;-77
2021/04/22 10:44:48;;;;;;;2.47;0.70;;;12.20;99.90;;;;;;4993544;28;20660;-76
2021/04/22 10:47:18;;;;;;;2.03;1.30;;;12.00;99.90;;;;;;4994933;28;20179;-78
2021/04/22 10:49:45;;;;;;;1.67;1.10;;;12.00;99.90;;;;;;4965349;28;20563;-80
2021/04/22 10:52:13;;;;;;;3.80;1.07;;;12.00;99.90;;;;;;4995912;28;20188;-81
2021/04/22 10:54:41;;;;;;;0.83;0.60;;;11.80;99.90;;;;;;4981546;28;20238;-80
2021/04/22 10:57:10;;;;;;;2.60;0.80;;;11.60;99.90;;;;;;4995140;28;20179;-78
2021/04/22 10:59:36;;;;;;;1.80;0.80;;;11.70;99.90;;;;;;5008420;28;20266;-79
2021/04/22 11:02:17;;;;;;;1.33;1.17;;;11.60;99.90;;;;;;5007718;28;20227;-81
2021/04/22 11:04:44;;;;;;;2.07;1.40;;;11.80;99.90;;;;;;5007456;28;20228;-79
2021/04/22 11:07:24;;;;;;;0.77;0.60;;;11.60;98.70;;;;;;5008634;28;20206;-79
2021/04/22 11:09:52;;;;;;;1.50;0.93;;;11.50;99.90;;;;;;5007758;28;20187;-79
2021/04/22 11:12:30;;;;;;;1.17;0.63;;;11.40;99.90;;;;;;5006729;28;20293;-80
2021/04/22 11:14:57;;;;;;;0.70;0.70;;;11.40;99.90;;;;;;5005440;28;20195;-79
2021/04/22 11:17:39;;;;;;;4.37;1.00;;;11.40;99.90;;;;;;5007472;28;20238;-80
2021/04/22 11:20:17;;;;;;;1.63;1.20;;;11.30;99.90;;;;;;5006565;28;20222;-82
2021/04/22 11:22:45;;;;;;;2.07;0.70;;;11.30;99.40;;;;;;5005521;28;20176;-82
2021/04/22 11:25:19;;;;;;;1.23;0.67;;;11.50;99.90;;;;;;5008005;28;20653;-77
2021/04/22 11:27:48;;;;;;;4.30;1.10;;;11.80;99.90;;;;;;5008600;28;20223;-78
2021/04/22 11:30:30;;;;;;;2.30;0.90;;;12.00;98.90;;;;;;5002671;28;20195;-79
2021/04/22 11:32:59;;;;;;;1.93;1.00;;;12.20;98.50;;;;;;5006312;28;20946;-84
2021/04/22 11:35:28;;;;;;;1.50;0.93;;;12.00;98.20;;;;;;5020718;28;20211;-84
2021/04/22 11:38:10;;;;;;;2.50;1.10;;;11.90;99.00;;;;;;5006086;28;20548;-84
2021/04/22 11:40:46;;;;;;;2.20;0.70;;;11.90;98.70;;;;;;5001759;28;20794;-85
2021/04/22 11:43:38;;;;;;;3.93;0.83;;;11.80;97.80;;;;;;5002282;28;20187;-83
2021/04/22 11:46:03;;;;;;;1.77;0.97;;;11.90;98.30;;;;;;4999683;28;20202;-84
2021/04/22 11:48:43;;;;;;;2.03;0.97;;;12.00;97.50;;;;;;5001362;28;20184;-84
2021/04/22 11:51:09;;;;;;;2.97;0.87;;;12.10;97.70;;;;;;5001352;28;20403;-84
2021/04/22 11:53:38;;;;;;;1.33;0.83;;;12.20;98.10;;;;;;5001206;28;20215;-84
2021/04/22 11:56:05;;;;;;;0.83;0.60;;;12.20;97.00;;;;;;5002504;28;20721;-84
2021/04/22 11:58:30;;;;;;;0.97;0.87;;;12.20;96.60;;;;;;5002218;28;20676;-84
2021/04/22 12:01:00;;;;;;;2.00;1.23;;;12.30;96.90;;;;;;5002585;28;20470;-84
2021/04/22 12:03:34;;;;;;;3.07;0.90;;;12.50;97.20;;;;;;5003233;28;20195;-84
2021/04/22 12:06:04;;;;;;;0.60;0.60;;;12.10;98.00;;;;;;5002763;28;20245;-83
2021/04/22 12:08:42;;;;;;;2.00;0.90;;;12.30;98.30;;;;;;5000910;28;20278;-84
2021/04/22 12:11:10;;;;;;;3.70;1.47;;;12.10;98.30;;;;;;5001149;28;20210;-84
2021/04/22 12:13:36;;;;;;;2.97;1.10;;;12.10;97.80;;;;;;5000984;28;20215;-84
2021/04/22 12:16:07;;;;;;;2.00;1.07;;;12.10;96.90;;;;;;5001244;28;20191;-84
2021/04/22 12:18:39;;;;;;;1.60;0.90;;;12.20;96.80;;;;;;5000639;28;20196;-85
2021/04/22 12:21:05;;;;;;;1.20;0.90;;;12.20;95.90;;;;;;5001107;28;20205;-83
2021/04/22 12:23:32;;;;;;;3.60;1.00;;;12.00;95.10;;;;;;5002583;28;20618;-84
2021/04/22 12:26:14;;;;;;;2.07;0.80;;;11.90;96.30;;;;;;5000802;28;20180;-84
2021/04/22 12:29:01;;;;;;;3.10;1.37;;;11.90;96.50;;;;;;5003148;28;20562;-85
2021/04/22 12:31:29;;;;;;;1.43;0.63;;;12.20;94.90;;;;;;5003501;28;20825;-84
2021/04/22 12:33:58;;;;;;;2.90;1.10;;;12.70;93.90;;;;;;5005142;28;20262;-85
2021/04/22 12:36:24;;;;;;;4.53;1.07;;;12.90;92.00;;;;;;5004910;28;20184;-83
2021/04/22 12:38:50;;;;;;;2.17;0.70;;;12.90;92.50;;;;;;5005411;28;20672;-84
2021/04/22 12:41:20;;;;;;;2.37;1.53;;;12.70;93.80;;;;;;5004636;28;20294;-84
2021/04/22 12:43:48;;;;;;;1.00;0.77;;;12.70;94.00;;;;;;5005374;28;20564;-84
2021/04/22 12:46:16;;;;;;;0.80;0.73;;;12.90;92.60;;;;;;5020901;28;20187;-84
2021/04/22 12:48:50;;;;;;;4.00;1.10;;;13.00;92.10;;;;;;5005284;28;20191;-85
2021/04/22 12:51:16;;;;;;;1.00;0.90;;;12.90;92.00;;;;;;5005846;28;20215;-85
2021/04/22 12:53:45;;;;;;;5.25;1.15;;;13.00;90.90;;;;;;5008715;28;20212;-84
2021/04/22 12:56:13;;;;;;;2.55;1.17;;;13.00;91.10;;;;;;5022064;28;20247;-84